Time;durP1;ratioP1;P1;durP2;ratioP2;P2;SDS_P1;SDS_P2;PMS_P1;PMS_P2;Temp;Humidity;BMP_temperature;BMP_pressure;BME280_temperature;BME280_humidity;BME280_pressure;Samples;Min_cycle;Max_cycle;Signal;HPM_P1;HPM_P2
2022/12/18 00:01:48;;;;;;;79.13;25.92;;;-2.10;99.90;;;;;;5050765;28;20052;-69
2022/12/18 00:04:21;;;;;;;83.28;28.33;;;-1.90;99.90;;;;;;5048846;28;20647;-68
2022/12/18 00:06:47;;;;;;;86.78;25.88;;;-1.90;99.90;;;;;;5050741;28;20056;-69
2022/12/18 00:09:12;;;;;;;76.03;25.80;;;-2.00;99.90;;;;;;5050424;28;20041;-69
2022/12/18 00:11:38;;;;;;;76.50;23.90;;;-1.90;99.90;;;;;;5050832;28;20048;-70
2022/12/18 00:14:04;;;;;;;82.35;28.02;;;-2.00;99.90;;;;;;5050027;28;20738;-69
2022/12/18 00:16:32;;;;;;;85.68;28.92;;;-1.90;99.90;;;;;;5050646;28;20041;-69
2022/12/18 00:19:01;;;;;;;79.95;27.23;;;-1.90;99.90;;;;;;5050629;28;20041;-68
2022/12/18 00:21:28;;;;;;;83.93;27.02;;;-1.90;99.90;;;;;;5049513;28;20524;-69
2022/12/18 00:23:54;;;;;;;77.25;26.40;;;-2.00;99.90;;;;;;5049853;28;20033;-69
2022/12/18 00:26:22;;;;;;;81.90;27.83;;;-2.00;99.90;;;;;;5050417;28;20087;-69
2022/12/18 00:28:49;;;;;;;78.90;26.02;;;-2.00;99.90;;;;;;5050810;28;20037;-69
2022/12/18 00:31:17;;;;;;;78.82;26.02;;;-1.90;99.90;;;;;;5049269;28;20037;-70
2022/12/18 00:33:43;;;;;;;80.20;26.67;;;-2.00;99.90;;;;;;5043316;28;20055;-69
2022/12/18 00:36:11;;;;;;;83.05;27.77;;;-2.10;99.90;;;;;;5053693;28;20110;-69
2022/12/18 00:38:37;;;;;;;74.40;27.17;;;-2.20;99.90;;;;;;5053405;28;20057;-70
2022/12/18 00:41:04;;;;;;;80.65;26.48;;;-2.10;99.90;;;;;;5053061;28;20107;-69
2022/12/18 00:43:29;;;;;;;83.25;27.20;;;-2.20;99.90;;;;;;5053421;28;20438;-68
2022/12/18 00:45:55;;;;;;;77.65;26.30;;;-2.20;99.90;;;;;;5052555;28;20079;-69
2022/12/18 00:48:22;;;;;;;93.30;29.30;;;-2.40;99.90;;;;;;5054390;28;20043;-70
2022/12/18 00:50:48;;;;;;;78.43;25.55;;;-2.30;99.90;;;;;;5054192;28;20053;-69
2022/12/18 00:53:14;;;;;;;91.63;28.63;;;-2.30;99.90;;;;;;5052907;28;20103;-69
2022/12/18 00:55:41;;;;;;;87.68;25.40;;;-2.40;99.90;;;;;;5051996;28;20520;-69
2022/12/18 00:58:07;;;;;;;84.68;27.02;;;-2.60;99.90;;;;;;5052807;28;20045;-69
2022/12/18 01:00:33;;;;;;;84.78;29.80;;;-2.50;99.90;;;;;;5053939;28;20037;-69
2022/12/18 01:02:58;;;;;;;84.75;28.80;;;-2.70;99.90;;;;;;5052797;28;20048;-69
2022/12/18 01:05:24;;;;;;;83.60;28.50;;;-2.60;99.90;;;;;;5052005;28;20041;-69
2022/12/18 01:07:50;;;;;;;82.10;26.85;;;-2.60;99.90;;;;;;5036113;28;20131;-69
2022/12/18 01:10:15;;;;;;;96.20;28.83;;;-2.60;99.90;;;;;;5052638;28;20048;-69
2022/12/18 01:12:41;;;;;;;91.60;28.10;;;-2.60;99.90;;;;;;5052598;28;20106;-70
2022/12/18 01:15:08;;;;;;;81.38;27.60;;;-2.70;99.90;;;;;;5051928;28;20049;-70
2022/12/18 01:17:34;;;;;;;85.28;27.35;;;-2.70;99.90;;;;;;5053874;28;20044;-69
2022/12/18 01:20:00;;;;;;;87.10;28.13;;;-2.70;99.90;;;;;;5052601;28;20045;-70
2022/12/18 01:22:25;;;;;;;78.90;25.20;;;-2.60;99.90;;;;;;5052092;28;20037;-68
2022/12/18 01:24:51;;;;;;;83.03;27.38;;;-2.70;99.90;;;;;;5053085;28;20747;-69
2022/12/18 01:27:16;;;;;;;82.65;27.60;;;-2.70;99.90;;;;;;5053505;28;20057;-69
2022/12/18 01:29:42;;;;;;;85.00;24.90;;;-2.70;99.90;;;;;;5052113;28;20037;-70
2022/12/18 01:32:08;;;;;;;74.45;25.42;;;-2.70;99.90;;;;;;5053614;28;20037;-70
2022/12/18 01:34:36;;;;;;;80.00;24.10;;;-2.80;99.90;;;;;;5052895;28;20513;-70
2022/12/18 01:37:03;;;;;;;85.47;25.52;;;-2.80;99.90;;;;;;5053443;28;20135;-69
2022/12/18 01:39:29;;;;;;;83.43;26.58;;;-2.80;99.90;;;;;;5053276;28;20561;-69
2022/12/18 01:42:03;;;;;;;69.68;26.38;;;-2.80;99.90;;;;;;5053309;28;20139;-69
2022/12/18 01:44:48;;;;;;;77.45;24.05;;;-2.80;99.90;;;;;;5052054;28;20072;-69
2022/12/18 01:47:34;;;;;;;77.72;24.88;;;-2.80;99.90;;;;;;5035441;28;20148;-69
2022/12/18 01:50:28;;;;;;;78.45;24.67;;;-2.90;99.90;;;;;;5053118;28;20036;-69
2022/12/18 01:52:57;;;;;;;73.40;27.27;;;-2.90;99.90;;;;;;5053102;28;20066;-69
2022/12/18 01:55:27;;;;;;;80.18;27.08;;;-3.10;99.90;;;;;;5052518;28;20033;-69
2022/12/18 01:57:56;;;;;;;79.88;25.13;;;-3.20;99.90;;;;;;5052802;28;20037;-69
2022/12/18 02:00:23;;;;;;;79.47;24.35;;;-3.20;99.90;;;;;;5052895;28;20098;-69
2022/12/18 02:02:49;;;;;;;68.63;23.60;;;-3.20;99.90;;;;;;5052870;28;20056;-69
2022/12/18 02:05:39;;;;;;;71.43;23.95;;;-3.30;99.90;;;;;;5052174;28;20033;-70
2022/12/18 02:08:29;;;;;;;63.92;22.80;;;-3.40;99.90;;;;;;5052906;28;20099;-69
2022/12/18 02:11:05;;;;;;;70.18;25.17;;;-3.50;99.90;;;;;;5053184;28;20102;-68
2022/12/18 02:13:37;;;;;;;68.45;23.63;;;-3.50;99.90;;;;;;5034900;28;20501;-69
2022/12/18 02:16:24;;;;;;;66.53;22.88;;;-3.50;99.90;;;;;;5050735;28;20040;-68
2022/12/18 02:18:56;;;;;;;63.65;23.88;;;-3.50;99.90;;;;;;5052323;28;20076;-69
2022/12/18 02:21:30;;;;;;;75.40;25.42;;;-3.50;99.90;;;;;;5051249;28;20045;-69
2022/12/18 02:24:34;;;;;;;75.85;25.50;;;-3.50;99.90;;;;;;5050414;28;20041;-69
2022/12/18 02:27:07;;;;;;;82.55;25.90;;;-3.50;99.90;;;;;;5051153;28;20091;-69
2022/12/18 02:29:45;;;;;;;85.95;29.70;;;-3.50;99.90;;;;;;5051005;28;20033;-69
2022/12/18 02:32:16;;;;;;;76.65;24.00;;;-3.50;99.90;;;;;;5051372;28;20427;-69
2022/12/18 02:34:44;;;;;;;67.45;23.40;;;-3.60;99.90;;;;;;5033608;28;20519;-69
2022/12/18 02:37:13;;;;;;;83.13;24.88;;;-3.50;99.90;;;;;;5051057;28;20448;-69
2022/12/18 02:39:42;;;;;;;70.90;25.30;;;-3.60;99.90;;;;;;5052019;28;20040;-69
2022/12/18 02:42:08;;;;;;;77.93;24.48;;;-3.40;99.90;;;;;;5052128;28;20519;-69
2022/12/18 02:44:41;;;;;;;71.93;25.92;;;-3.40;99.90;;;;;;5051279;28;20107;-69
2022/12/18 02:47:09;;;;;;;;;;;-3.50;99.90;;;;;;5052915;28;20041;-69
2022/12/18 02:49:46;;;;;;;69.97;21.98;;;-3.60;99.90;;;;;;5051825;28;20026;-69
2022/12/18 02:52:34;;;;;;;73.05;24.25;;;-3.60;99.90;;;;;;5050685;28;20051;-70
2022/12/18 02:55:07;;;;;;;72.10;24.83;;;-3.70;99.90;;;;;;5051077;28;20398;-69
2022/12/18 02:57:35;;;;;;;69.28;23.77;;;-3.70;99.90;;;;;;5052169;28;20044;-69
2022/12/18 03:00:01;;;;;;;68.90;24.80;;;-3.70;99.90;;;;;;5051643;28;20041;-69
2022/12/18 03:02:47;;;;;;;66.93;23.63;;;-3.90;99.90;;;;;;5051821;28;20174;-69
2022/12/18 03:05:36;;;;;;;65.03;23.02;;;-3.90;99.90;;;;;;5050929;28;20036;-68
2022/12/18 03:08:19;;;;;;;67.45;24.05;;;-4.00;99.90;;;;;;5051529;28;20060;-69
2022/12/18 03:11:01;;;;;;;66.18;22.75;;;-4.00;99.90;;;;;;5050486;28;20045;-69
2022/12/18 03:13:33;;;;;;;70.53;22.60;;;-4.00;99.90;;;;;;5050045;28;20241;-69
2022/12/18 03:16:00;;;;;;;59.80;22.05;;;-4.10;99.90;;;;;;5049486;28;20040;-69
2022/12/18 03:18:35;;;;;;;67.72;20.75;;;-4.10;99.90;;;;;;5049966;28;20064;-70
2022/12/18 03:21:05;;;;;;;61.50;21.98;;;-4.10;99.90;;;;;;5050035;28;20087;-69
2022/12/18 03:23:36;;;;;;;64.35;23.42;;;-4.20;99.90;;;;;;5050420;28;20443;-69
2022/12/18 03:26:08;;;;;;;58.63;19.90;;;-4.30;99.90;;;;;;5049431;28;20041;-70
2022/12/18 03:28:39;;;;;;;63.60;22.33;;;-4.20;99.90;;;;;;5049934;28;20112;-70
2022/12/18 03:31:08;;;;;;;60.50;20.88;;;-4.30;99.90;;;;;;5051412;28;20066;-69
2022/12/18 03:33:57;;;;;;;50.42;19.80;;;-4.30;99.90;;;;;;5051168;28;20041;-69
2022/12/18 03:36:23;;;;;;;54.35;17.67;;;-4.30;99.90;;;;;;5051466;28;20049;-69
2022/12/18 03:38:49;;;;;;;63.72;22.35;;;-4.30;99.90;;;;;;5049946;28;20063;-70
2022/12/18 03:41:26;;;;;;;60.65;21.88;;;-4.40;99.90;;;;;;5051122;28;20037;-70
2022/12/18 03:44:16;;;;;;;50.95;19.23;;;-4.30;99.90;;;;;;5050556;28;20094;-70
2022/12/18 03:46:55;;;;;;;57.10;20.55;;;-4.40;99.90;;;;;;5051306;28;20041;-69
2022/12/18 03:49:29;;;;;;;56.55;20.30;;;-4.40;99.90;;;;;;5051055;28;20106;-69
2022/12/18 03:52:01;;;;;;;54.42;19.60;;;-4.30;99.90;;;;;;5049951;28;20127;-69
2022/12/18 03:54:28;;;;;;;56.33;18.80;;;-4.40;99.90;;;;;;5050367;28;20056;-70
2022/12/18 03:57:09;;;;;;;52.92;20.63;;;-4.40;99.90;;;;;;5049631;28;20079;-69
2022/12/18 03:59:37;;;;;;;55.97;20.15;;;-4.40;99.90;;;;;;5049280;28;20499;-69
2022/12/18 04:02:05;;;;;;;56.13;21.88;;;-4.40;99.90;;;;;;5032841;28;20048;-69
2022/12/18 04:04:31;;;;;;;52.97;18.55;;;-4.40;99.90;;;;;;5048816;28;20044;-70
2022/12/18 04:06:58;;;;;;;49.05;18.80;;;-4.50;99.90;;;;;;5050614;28;20492;-70
2022/12/18 04:09:24;;;;;;;46.35;16.88;;;-4.50;99.90;;;;;;5049069;28;20060;-69
2022/12/18 04:11:51;;;;;;;48.60;18.88;;;-4.50;99.90;;;;;;5049324;28;20439;-69
2022/12/18 04:14:17;;;;;;;43.40;16.92;;;-4.50;99.90;;;;;;5050166;28;20044;-70
2022/12/18 04:16:42;;;;;;;46.47;16.98;;;-4.50;99.90;;;;;;5049246;28;20460;-69
2022/12/18 04:19:08;;;;;;;47.05;19.95;;;-4.50;99.90;;;;;;5050627;28;20041;-70
2022/12/18 04:21:33;;;;;;;47.83;18.08;;;-4.70;99.90;;;;;;5050394;28;20123;-70
2022/12/18 04:23:59;;;;;;;41.72;17.02;;;-4.50;99.90;;;;;;5048861;28;20041;-70
2022/12/18 04:26:24;;;;;;;51.72;17.48;;;-4.70;99.90;;;;;;5050680;28;20037;-69
2022/12/18 04:28:50;;;;;;;45.42;17.27;;;-4.60;99.90;;;;;;5050726;28;20508;-69
2022/12/18 04:31:16;;;;;;;39.88;15.68;;;-4.70;99.90;;;;;;5049314;28;20045;-70
2022/12/18 04:33:41;;;;;;;48.80;16.67;;;-4.70;99.90;;;;;;5050047;28;20081;-71
2022/12/18 04:36:07;;;;;;;53.65;17.73;;;-4.70;99.90;;;;;;5050255;28;20543;-69
2022/12/18 04:38:32;;;;;;;47.58;16.17;;;-4.70;99.90;;;;;;5032265;28;20390;-69
2022/12/18 04:40:58;;;;;;;38.38;16.92;;;-4.60;99.90;;;;;;5050477;28;20045;-70
2022/12/18 04:43:24;;;;;;;48.97;16.60;;;-4.70;99.90;;;;;;5050310;28;20401;-70
2022/12/18 04:45:49;;;;;;;52.08;18.15;;;-4.60;99.90;;;;;;5031660;28;20057;-69
2022/12/18 04:48:15;;;;;;;44.65;16.52;;;-4.50;99.90;;;;;;5050358;28;20033;-70
2022/12/18 04:50:40;;;;;;;41.47;18.13;;;-4.50;99.90;;;;;;5050149;28;20470;-70
2022/12/18 04:53:06;;;;;;;40.75;15.73;;;-4.50;99.90;;;;;;5049061;28;20052;-69
2022/12/18 04:55:31;;;;;;;46.40;18.02;;;-4.50;99.90;;;;;;5049578;28;20073;-69
2022/12/18 04:57:57;;;;;;;46.05;19.08;;;-4.60;99.90;;;;;;5048841;28;20041;-69
2022/12/18 05:00:23;;;;;;;42.85;16.70;;;-4.60;99.90;;;;;;5049073;28;20044;-69
2022/12/18 05:02:48;;;;;;;43.03;16.85;;;-4.70;99.90;;;;;;5049965;28;20176;-69
2022/12/18 05:05:14;;;;;;;40.40;16.50;;;-4.70;99.90;;;;;;5048039;28;20068;-70
2022/12/18 05:07:40;;;;;;;42.33;16.25;;;-4.70;99.90;;;;;;5048753;28;20046;-70
2022/12/18 05:10:05;;;;;;;42.55;15.98;;;-4.70;99.90;;;;;;5048772;28;20639;-69
2022/12/18 05:12:31;;;;;;;36.50;15.68;;;-4.80;99.90;;;;;;5048956;28;20397;-69
2022/12/18 05:14:57;;;;;;;34.45;14.52;;;-4.70;99.90;;;;;;5049455;28;20052;-70
2022/12/18 05:17:22;;;;;;;35.47;15.05;;;-4.80;99.90;;;;;;5048672;28;20133;-70
2022/12/18 05:19:48;;;;;;;39.13;15.77;;;-4.80;99.90;;;;;;5050390;28;20040;-69
2022/12/18 05:22:13;;;;;;;37.53;13.75;;;-4.80;99.90;;;;;;5053787;28;20045;-69
2022/12/18 05:24:39;;;;;;;33.83;15.05;;;-4.70;99.90;;;;;;5052826;28;20029;-70
2022/12/18 05:27:05;;;;;;;38.47;15.38;;;-4.70;99.90;;;;;;5052286;28;20052;-70
2022/12/18 05:29:30;;;;;;;40.05;15.95;;;-4.70;99.90;;;;;;5052426;28;20060;-69
2022/12/18 05:31:56;;;;;;;35.00;16.27;;;-4.80;99.90;;;;;;5052151;28;20055;-69
2022/12/18 05:34:21;;;;;;;39.38;15.02;;;-4.80;99.90;;;;;;5051437;28;20528;-69
2022/12/18 05:36:47;;;;;;;31.15;14.25;;;-4.80;99.90;;;;;;5053646;28;20443;-69
2022/12/18 05:39:12;;;;;;;31.58;15.00;;;-4.80;99.90;;;;;;5052274;28;20033;-70
2022/12/18 05:41:38;;;;;;;38.22;14.57;;;-4.70;99.90;;;;;;5053273;28;20044;-69
2022/12/18 05:44:03;;;;;;;40.20;16.05;;;-4.80;99.90;;;;;;5051309;28;20154;-69
2022/12/18 05:46:29;;;;;;;40.53;15.27;;;-4.80;99.90;;;;;;5051742;28;20063;-69
2022/12/18 05:48:55;;;;;;;35.63;14.25;;;-4.90;99.90;;;;;;5053121;28;20106;-71
2022/12/18 05:51:22;;;;;;;43.60;16.23;;;-4.90;99.90;;;;;;5053446;28;20052;-70
2022/12/18 05:53:48;;;;;;;41.55;15.52;;;-4.90;99.90;;;;;;5051276;28;20056;-69
2022/12/18 05:56:19;;;;;;;33.65;14.20;;;-4.90;99.90;;;;;;5035172;28;20036;-70
2022/12/18 05:58:45;;;;;;;37.03;14.85;;;-4.80;99.90;;;;;;5051857;28;20045;-69
2022/12/18 06:01:23;;;;;;;36.17;15.02;;;-4.80;99.90;;;;;;5051644;28;20528;-69
2022/12/18 06:03:49;;;;;;;36.40;15.55;;;-4.80;99.90;;;;;;5052013;28;20033;-70
2022/12/18 06:06:33;;;;;;;39.38;15.55;;;-4.80;99.90;;;;;;5052973;28;20514;-69
2022/12/18 06:08:58;;;;;;;32.92;14.00;;;-4.80;99.90;;;;;;5052980;28;20116;-69
2022/12/18 06:11:26;;;;;;;31.50;13.75;;;-4.80;99.90;;;;;;5052870;28;20128;-70
2022/12/18 06:13:53;;;;;;;36.10;15.23;;;-4.80;99.90;;;;;;5052001;28;20056;-70
2022/12/18 06:16:19;;;;;;;32.20;14.70;;;-4.80;99.90;;;;;;5051644;28;20378;-69
2022/12/18 06:18:45;;;;;;;33.17;14.57;;;-4.90;99.90;;;;;;5051138;28;20033;-69
2022/12/18 06:21:10;;;;;;;30.73;15.27;;;-5.00;99.90;;;;;;5051255;28;20179;-69
2022/12/18 06:23:36;;;;;;;32.90;13.77;;;-4.90;99.90;;;;;;5051109;28;20632;-70
2022/12/18 06:26:12;;;;;;;36.38;13.25;;;-4.90;99.90;;;;;;5033923;28;20077;-70
2022/12/18 06:28:38;;;;;;;31.42;12.43;;;-4.90;99.90;;;;;;5052374;28;20068;-70
2022/12/18 06:31:04;;;;;;;35.38;14.45;;;-4.90;99.90;;;;;;5052253;28;20068;-70
2022/12/18 06:33:30;;;;;;;29.35;13.23;;;-5.00;99.90;;;;;;5052206;28;20033;-70
2022/12/18 06:36:04;;;;;;;33.60;14.35;;;-5.00;99.90;;;;;;5051667;28;20037;-69
2022/12/18 06:38:32;;;;;;;28.92;13.75;;;-5.00;99.90;;;;;;5052372;28;20086;-70
2022/12/18 06:40:57;;;;;;;33.55;14.88;;;-5.00;99.90;;;;;;5052163;28;20056;-69
2022/12/18 06:43:23;;;;;;;40.47;14.40;;;-5.20;99.90;;;;;;5052169;28;20032;-69
2022/12/18 06:45:52;;;;;;;37.72;14.07;;;-5.10;99.90;;;;;;5051593;28;20099;-70
2022/12/18 06:48:21;;;;;;;34.50;14.88;;;-5.20;99.90;;;;;;5050715;28;20071;-71
2022/12/18 06:50:47;;;;;;;35.63;14.68;;;-5.20;99.90;;;;;;5050869;28;20116;-70
2022/12/18 06:53:13;;;;;;;38.17;14.25;;;-5.10;99.90;;;;;;5050620;28;20573;-70
2022/12/18 06:55:39;;;;;;;27.95;13.75;;;-5.10;99.90;;;;;;5051161;28;20124;-70
2022/12/18 06:58:04;;;;;;;37.55;13.52;;;-5.10;99.90;;;;;;5051928;28;20071;-69
2022/12/18 07:00:30;;;;;;;30.17;12.77;;;-5.10;99.90;;;;;;5051897;28;20041;-70
2022/12/18 07:02:56;;;;;;;29.58;14.38;;;-5.20;99.90;;;;;;5051878;28;20045;-70
2022/12/18 07:05:21;;;;;;;31.90;15.05;;;-5.20;99.90;;;;;;5051138;28;20040;-70
2022/12/18 07:07:47;;;;;;;36.13;15.65;;;-5.20;99.90;;;;;;5051377;28;20419;-70
2022/12/18 07:10:12;;;;;;;31.80;14.60;;;-5.20;99.90;;;;;;5033761;28;20041;-70
2022/12/18 07:12:38;;;;;;;33.75;12.82;;;-5.20;99.90;;;;;;5051542;28;20049;-69
2022/12/18 07:15:04;;;;;;;28.23;12.60;;;-5.20;99.90;;;;;;5049465;28;20124;-70
2022/12/18 07:17:30;;;;;;;33.38;12.98;;;-5.30;99.90;;;;;;5051095;28;20128;-69
2022/12/18 07:19:55;;;;;;;27.15;12.10;;;-5.30;99.90;;;;;;5042168;28;20123;-70
2022/12/18 07:22:21;;;;;;;29.42;13.02;;;-5.30;99.90;;;;;;5040367;28;20360;-71
2022/12/18 07:24:47;;;;;;;29.23;12.75;;;-5.20;99.90;;;;;;5028772;28;20048;-71
2022/12/18 07:27:12;;;;;;;29.00;13.73;;;-5.30;99.90;;;;;;5049870;28;20394;-70
2022/12/18 07:29:38;;;;;;;30.40;13.00;;;-5.30;99.90;;;;;;5048343;28;20036;-69
2022/12/18 07:32:03;;;;;;;31.17;12.23;;;-5.40;99.90;;;;;;5049598;28;20041;-70
2022/12/18 07:34:29;;;;;;;23.30;12.18;;;-5.30;99.90;;;;;;5045968;28;20043;-71
2022/12/18 07:36:54;;;;;;;28.85;13.00;;;-5.20;99.90;;;;;;5047533;28;20049;-70
2022/12/18 07:39:20;;;;;;;27.40;12.48;;;-5.30;99.90;;;;;;5049678;28;20041;-70
2022/12/18 07:42:30;;;;;;;28.40;12.73;;;-5.30;99.90;;;;;;5049696;28;20057;-70
2022/12/18 07:44:31;;;;;;;22.27;13.45;;;-5.20;99.90;;;;;;5049985;28;20111;-71
2022/12/18 07:46:57;;;;;;;22.90;11.57;;;-5.30;99.90;;;;;;5050275;28;20511;-69
2022/12/18 07:49:22;;;;;;;23.67;11.93;;;-5.20;99.90;;;;;;5050030;28;20045;-69
2022/12/18 07:51:48;;;;;;;23.15;11.80;;;-5.10;99.90;;;;;;5050484;28;20413;-69
2022/12/18 07:54:14;;;;;;;26.00;11.38;;;-5.00;99.90;;;;;;5048818;28;20059;-69
2022/12/18 07:56:40;;;;;;;20.08;12.90;;;-5.00;99.90;;;;;;5049844;28;20040;-70
2022/12/18 07:59:05;;;;;;;26.17;11.80;;;-5.00;99.90;;;;;;5049256;28;20059;-70
2022/12/18 08:01:34;;;;;;;23.92;11.43;;;-5.00;99.90;;;;;;5050378;28;20045;-70
2022/12/18 08:03:59;;;;;;;27.65;11.80;;;-5.00;99.90;;;;;;5049987;28;20064;-70
2022/12/18 08:06:25;;;;;;;21.90;10.80;;;-5.00;99.90;;;;;;5050598;28;20053;-69
2022/12/18 08:08:53;;;;;;;20.30;9.82;;;-5.00;99.90;;;;;;5050678;28;20037;-69
2022/12/18 08:11:18;;;;;;;25.15;11.45;;;-4.90;99.90;;;;;;5050719;28;20401;-70
2022/12/18 08:13:44;;;;;;;23.48;11.90;;;-5.00;99.90;;;;;;5048898;28;20045;-70
2022/12/18 08:16:09;;;;;;;21.00;10.52;;;-5.00;99.90;;;;;;5050587;28;20569;-69
2022/12/18 08:18:36;;;;;;;21.95;10.70;;;-4.90;99.90;;;;;;5049267;28;20120;-70
2022/12/18 08:21:12;;;;;;;22.75;11.63;;;-5.00;99.90;;;;;;5050384;28;20040;-69
2022/12/18 08:23:39;;;;;;;23.13;11.68;;;-4.90;99.90;;;;;;5051433;28;20402;-70
2022/12/18 08:26:05;;;;;;;28.70;12.02;;;-4.90;99.90;;;;;;5059127;28;20107;-69
2022/12/18 08:28:31;;;;;;;30.33;11.43;;;-4.70;99.90;;;;;;5059656;28;20449;-70
2022/12/18 08:30:56;;;;;;;25.10;11.52;;;-4.70;99.90;;;;;;5042345;28;20076;-70
2022/12/18 08:33:22;;;;;;;26.92;10.75;;;-4.70;99.90;;;;;;5061358;28;20033;-68
2022/12/18 08:35:47;;;;;;;25.50;11.15;;;-4.60;99.90;;;;;;5054204;28;20064;-69
2022/12/18 08:38:13;;;;;;;27.67;11.73;;;-4.60;99.90;;;;;;5059000;28;20032;-69
2022/12/18 08:40:39;;;;;;;19.42;9.80;;;-4.60;99.90;;;;;;5059211;28;20037;-69
2022/12/18 08:45:49;;;;;;;27.38;12.07;;;-4.50;99.90;;;;;;5055934;28;20455;-70
2022/12/18 08:48:14;;;;;;;19.90;11.27;;;-4.40;99.90;;;;;;5059998;28;20039;-69
2022/12/18 08:50:40;;;;;;;22.88;12.35;;;-4.40;99.90;;;;;;5060813;28;20029;-69
2022/12/18 08:53:06;;;;;;;27.02;11.52;;;-4.40;99.90;;;;;;5057733;28;20106;-69
2022/12/18 08:55:31;;;;;;;26.20;10.55;;;-4.30;99.90;;;;;;5044737;28;20049;-69
2022/12/18 08:57:57;;;;;;;22.85;11.57;;;-4.30;99.90;;;;;;5062722;28;20037;-69
2022/12/18 09:00:23;;;;;;;21.20;11.18;;;-4.30;99.90;;;;;;5061296;28;20087;-69
2022/12/18 09:02:48;;;;;;;26.55;10.77;;;-4.20;99.90;;;;;;5053893;28;20051;-68
2022/12/18 09:05:14;;;;;;;25.08;10.93;;;-4.30;99.90;;;;;;5051043;28;20033;-70
2022/12/18 09:07:40;;;;;;;20.70;10.65;;;-4.20;99.90;;;;;;5034174;28;20595;-70
2022/12/18 09:10:06;;;;;;;20.52;10.05;;;-4.10;99.90;;;;;;5053218;28;20068;-70
2022/12/18 09:12:31;;;;;;;19.13;10.55;;;-4.10;99.90;;;;;;5053507;28;20405;-69
2022/12/18 09:14:57;;;;;;;19.05;10.77;;;-4.10;99.90;;;;;;5051324;28;20044;-70
2022/12/18 09:17:23;;;;;;;22.15;11.25;;;-4.00;99.90;;;;;;5052203;28;20049;-69
2022/12/18 09:19:49;;;;;;;16.00;8.90;;;-3.90;99.90;;;;;;5053365;28;20033;-69
2022/12/18 09:22:14;;;;;;;18.33;8.85;;;-3.90;99.90;;;;;;5052334;28;20095;-69
2022/12/18 09:24:40;;;;;;;15.93;9.23;;;-3.90;99.90;;;;;;5052891;28;20091;-69
2022/12/18 09:27:06;;;;;;;22.13;9.38;;;-3.70;99.90;;;;;;5053688;28;20040;-70
2022/12/18 09:29:32;;;;;;;16.70;9.15;;;-3.70;99.90;;;;;;5053527;28;20088;-70
2022/12/18 09:31:58;;;;;;;15.45;9.60;;;-3.60;99.90;;;;;;5052084;28;20045;-70
2022/12/18 09:34:23;;;;;;;17.02;8.80;;;-3.60;99.90;;;;;;5051294;28;20053;-70
2022/12/18 09:36:49;;;;;;;16.00;8.45;;;-3.40;99.90;;;;;;5053609;28;20551;-69
2022/12/18 09:39:15;;;;;;;20.15;9.52;;;-3.40;99.90;;;;;;5053449;28;20386;-69
2022/12/18 09:41:42;;;;;;;13.93;7.30;;;-3.30;99.90;;;;;;5053452;28;20494;-69
2022/12/18 09:44:24;;;;;;;16.20;8.90;;;-3.30;99.90;;;;;;5050591;28;20143;-70
2022/12/18 09:47:01;;;;;;;14.23;7.88;;;-3.30;99.90;;;;;;5053410;28;20130;-70
2022/12/18 09:49:30;;;;;;;14.00;8.40;;;-3.20;99.90;;;;;;5051739;28;20094;-70
2022/12/18 09:52:20;;;;;;;15.05;8.23;;;-3.20;99.90;;;;;;5053092;28;20098;-69
2022/12/18 09:54:58;;;;;;;15.13;8.32;;;-3.10;99.90;;;;;;5040137;28;20086;-69
2022/12/18 09:57:25;;;;;;;13.93;8.50;;;-3.00;99.90;;;;;;5053178;28;20393;-69
2022/12/18 09:59:58;;;;;;;15.57;8.20;;;-2.90;99.90;;;;;;5052957;28;20041;-70
2022/12/18 10:02:26;;;;;;;12.15;6.45;;;-2.90;99.90;;;;;;5051455;28;20033;-70
2022/12/18 10:05:05;;;;;;;12.88;7.22;;;-2.90;99.90;;;;;;5060863;28;20076;-70
2022/12/18 10:07:43;;;;;;;17.13;7.47;;;-2.80;99.90;;;;;;5059379;28;20041;-70
2022/12/18 10:10:39;;;;;;;11.90;7.60;;;-2.70;99.90;;;;;;5056430;28;20033;-70
2022/12/18 10:13:05;;;;;;;10.93;6.55;;;-2.60;99.90;;;;;;5063006;28;20039;-70
2022/12/18 10:15:58;;;;;;;13.80;7.40;;;-2.60;99.90;;;;;;5060783;28;20116;-70
2022/12/18 10:18:42;;;;;;;;;;;-2.60;99.90;;;;;;5062985;28;20516;-70
2022/12/18 10:21:15;;;;;;;10.05;6.10;;;-2.60;99.90;;;;;;5062366;28;19920;-69
2022/12/18 10:24:12;;;;;;;14.88;6.85;;;-2.50;99.90;;;;;;5070991;28;20032;-72
2022/12/18 10:26:39;;;;;;;11.38;6.82;;;-2.50;99.90;;;;;;5065446;28;20044;-72
2022/12/18 10:29:12;;;;;;;12.45;6.28;;;-2.20;99.90;;;;;;5057632;28;20041;-72
2022/12/18 10:31:37;;;;;;;10.70;6.07;;;-2.30;99.90;;;;;;5053357;28;20648;-72
2022/12/18 10:34:03;;;;;;;10.18;6.75;;;-2.40;99.90;;;;;;5043134;28;20045;-72
2022/12/18 10:36:29;;;;;;;11.13;5.65;;;-2.40;99.90;;;;;;5050747;28;20541;-72
2022/12/18 10:39:15;;;;;;;8.85;5.88;;;-2.40;99.90;;;;;;5050544;28;20043;-72
2022/12/18 10:41:40;;;;;;;11.05;5.75;;;-2.40;99.90;;;;;;5049733;28;20037;-72
2022/12/18 10:44:16;;;;;;;9.60;5.30;;;-2.30;99.90;;;;;;5049761;28;20778;-72
2022/12/18 10:46:42;;;;;;;10.07;5.32;;;-2.30;99.90;;;;;;5050098;28;20509;-71
2022/12/18 10:49:22;;;;;;;10.18;5.68;;;-2.30;99.90;;;;;;5051234;28;20044;-72
2022/12/18 10:51:48;;;;;;;11.07;6.10;;;-2.30;99.90;;;;;;5048535;28;20041;-72
2022/12/18 10:54:23;;;;;;;9.18;5.00;;;-2.20;99.90;;;;;;5044262;28;20040;-73
2022/12/18 10:56:49;;;;;;;9.85;5.38;;;-2.20;99.90;;;;;;5025861;28;20033;-73
2022/12/18 10:59:17;;;;;;;9.13;5.15;;;-2.20;99.90;;;;;;5045323;28;20076;-74
2022/12/18 11:01:55;;;;;;;7.25;4.80;;;-2.10;99.90;;;;;;5049442;28;20041;-72
2022/12/18 11:04:26;;;;;;;11.48;4.80;;;-2.00;99.90;;;;;;5047017;28;20029;-72
2022/12/18 11:07:07;;;;;;;10.20;5.47;;;-2.00;99.90;;;;;;5048366;28;20047;-73
2022/12/18 11:09:35;;;;;;;8.38;5.35;;;-2.00;99.90;;;;;;5045533;28;20063;-71
2022/12/18 11:12:05;;;;;;;8.55;4.50;;;-1.90;99.90;;;;;;5046694;28;20053;-70
2022/12/18 11:14:41;;;;;;;9.10;5.68;;;-1.80;99.90;;;;;;5048194;28;20824;-69
2022/12/18 11:17:19;;;;;;;6.45;3.95;;;-1.70;99.90;;;;;;5049441;28;20123;-69
2022/12/18 11:19:53;;;;;;;7.90;5.13;;;-1.70;99.90;;;;;;5049682;28;20069;-68
2022/12/18 11:22:27;;;;;;;6.45;3.83;;;-1.60;99.90;;;;;;5049766;28;20123;-68
2022/12/18 11:24:57;;;;;;;7.80;4.43;;;-1.70;99.90;;;;;;5047282;28;20048;-70
2022/12/18 11:27:22;;;;;;;8.20;4.05;;;-1.60;99.90;;;;;;5050141;28;20080;-71
2022/12/18 11:29:51;;;;;;;7.47;5.18;;;-1.40;99.90;;;;;;5049013;28;20539;-71
2022/12/18 11:32:37;;;;;;;7.57;4.70;;;-1.40;99.90;;;;;;5050142;28;20048;-71
2022/12/18 11:35:19;;;;;;;6.05;4.35;;;-1.30;99.90;;;;;;5048868;28;20041;-71
2022/12/18 11:37:53;;;;;;;8.10;3.72;;;-1.40;99.90;;;;;;5051162;28;20158;-71
2022/12/18 11:40:27;;;;;;;9.40;4.32;;;-1.40;99.90;;;;;;5050959;28;20119;-70
2022/12/18 11:43:19;;;;;;;7.47;4.72;;;-1.30;99.90;;;;;;5014075;28;20053;-68
2022/12/18 11:46:17;;;;;;;8.85;4.85;;;-1.30;99.90;;;;;;5029528;28;20041;-68
2022/12/18 11:48:54;;;;;;;5.90;4.85;;;-1.30;99.90;;;;;;5029523;28;20080;-68
2022/12/18 11:51:28;;;;;;;10.65;4.60;;;-1.20;99.90;;;;;;5030672;28;20544;-68
2022/12/18 11:53:54;;;;;;;8.27;4.78;;;-1.20;99.90;;;;;;5028598;28;20049;-71
2022/12/18 11:56:27;;;;;;;6.78;4.60;;;-1.20;99.90;;;;;;5029135;28;20409;-68
2022/12/18 11:59:12;;;;;;;6.20;3.92;;;-1.10;99.90;;;;;;5030827;28;20071;-69
2022/12/18 12:01:51;;;;;;;9.95;5.03;;;-1.10;99.90;;;;;;5029132;28;20064;-70
2022/12/18 12:04:42;;;;;;;8.32;4.22;;;-1.10;99.90;;;;;;5028359;28;20045;-69
2022/12/18 12:07:26;;;;;;;9.43;4.55;;;-1.10;99.90;;;;;;5028959;28;20034;-70
2022/12/18 12:10:10;;;;;;;7.72;4.32;;;-1.10;99.90;;;;;;5012925;28;20045;-69
2022/12/18 12:13:08;;;;;;;10.77;3.88;;;-1.00;99.90;;;;;;5029141;28;20049;-69
2022/12/18 12:16:07;;;;;;;12.68;5.03;;;-1.00;99.90;;;;;;5028196;28;20494;-69
2022/12/18 12:18:32;;;;;;;9.38;4.28;;;-0.90;99.90;;;;;;5029201;28;20095;-69
2022/12/18 12:21:39;;;;;;;6.82;4.55;;;-0.90;99.90;;;;;;5012746;28;20045;-68
2022/12/18 12:24:17;;;;;;;9.48;5.38;;;-0.90;99.90;;;;;;5049372;28;20454;-69
2022/12/18 12:26:53;;;;;;;7.82;4.10;;;-0.90;99.90;;;;;;5048160;28;20076;-67
2022/12/18 12:29:27;;;;;;;10.98;4.90;;;-0.70;99.90;;;;;;5051834;28;20472;-68
2022/12/18 12:32:11;;;;;;;8.95;4.90;;;-0.80;99.90;;;;;;5054841;28;20044;-68
2022/12/18 12:35:14;;;;;;;6.38;4.30;;;-0.80;99.90;;;;;;5054181;28;20059;-68
2022/12/18 12:38:01;;;;;;;8.18;4.88;;;-0.80;99.90;;;;;;5053612;28;20118;-68
2022/12/18 12:40:29;;;;;;;8.20;4.72;;;-0.70;99.90;;;;;;5053438;28;20596;-68
2022/12/18 12:43:14;;;;;;;7.05;4.22;;;-0.70;99.90;;;;;;5053210;28;20104;-68
2022/12/18 12:46:06;;;;;;;7.38;4.22;;;-0.70;99.90;;;;;;5053634;28;20497;-68
2022/12/18 12:48:52;;;;;;;7.80;4.55;;;-0.70;99.90;;;;;;5053058;28;20055;-68
2022/12/18 12:51:22;;;;;;;7.72;4.75;;;-0.70;99.90;;;;;;5054479;28;20048;-68